Latest Weather Observations for Campania

IDT60801

Issued at 10:32 pm EST Sunday 30 April 2017 (issued every 30 minutes, with the page automatically refreshed every 10 minutes)

About weather observations | Map of weather stations | Latest weather observations for TAS | Other Formats
Station Details ID: 094212 Name: CAMPANIA (KINCORA) Lat: -42.69 Lon: 147.43 Height: 45.0 m
Data from the previous 72 hours. | See also: Recent months at Campania
Date/Time
EST
Temp
°C
App
Temp
°C
Dew
Point
°C
Rel
Hum
%
Delta-T
°C
Wind Press
QNH
hPa
Press
MSL
hPa
Rain since
9am
mm
Dir  Spd
km/h
Gust
km/h
Spd
kts
Gust
kts
30/10:30pm 12.0 7.6 7.3 73 2.3 N 20 30 11 16 - - 0.0
30/10:00pm 11.3 8.6 7.4 77 1.9 N 11 22 6 12 - - 0.0
30/09:30pm 11.9 7.1 7.4 74 2.2 N 22 33 12 18 - - 0.0
30/09:00pm 11.9 6.4 7.6 75 2.1 N 26 33 14 18 - - 0.0
30/08:30pm 10.9 8.8 6.8 76 1.9 N 7 13 4 7 - - 0.0
30/08:00pm 11.7 8.6 7.2 74 2.2 N 13 20 7 11 - - 0.0
30/07:30pm 12.2 7.5 7.7 74 2.2 NNE 22 28 12 15 - - 0.0
30/07:00pm 12.5 7.9 8.0 74 2.2 N 22 30 12 16 - - 0.0
30/06:30pm 13.1 8.1 8.2 72 2.4 N 24 33 13 18 - - 0.0
30/06:00pm 13.2 9.5 8.1 71 2.5 N 17 24 9 13 - - 0.0
30/05:30pm 13.8 10.2 8.2 69 2.8 N 17 24 9 13 - - 0.0
30/05:00pm 15.1 11.2 8.6 65 3.3 N 19 26 10 14 - - 0.0
30/04:30pm 16.5 12.4 8.7 60 4.0 N 20 28 11 15 - - 0.0
30/04:00pm 17.4 13.0 9.1 58 4.3 N 22 32 12 17 - - 0.0
30/03:30pm 18.6 13.5 9.1 54 5.0 N 26 32 14 17 - - 0.0
30/03:00pm 19.6 15.3 9.5 52 5.4 N 22 32 12 17 - - 0.0
30/02:30pm 19.5 15.1 9.1 51 5.5 N 22 32 12 17 - - 0.0
30/02:00pm 20.3 18.2 9.8 51 5.6 NNW 11 19 6 10 - - 0.0
30/01:30pm 19.7 18.1 10.1 54 5.2 NNW 9 17 5 9 - - 0.0
30/01:00pm 19.1 17.9 10.4 57 4.7 NW 7 13 4 7 - - 0.0
30/12:30pm 17.9 16.2 9.8 59 4.3 NNW 9 17 5 9 - - 0.0
30/12:00pm 16.8 14.6 9.2 61 3.9 NW 11 15 6 8 - - 0.0
30/11:30am 16.5 14.4 9.7 64 3.6 NW 11 17 6 9 - - 0.0
30/11:00am 15.4 12.6 8.6 64 3.5 NW 13 17 7 9 - - 0.0
30/10:30am 14.7 11.9 8.6 67 3.1 NNW 13 19 7 10 - - 0.0
30/10:00am 13.7 11.5 7.9 68 2.9 NNW 9 15 5 8 - - 0.0
30/09:30am 12.4 9.8 7.7 73 2.3 NNW 11 15 6 8 - - 0.0
30/09:00am 11.3 9.1 7.8 79 1.7 NNW 9 13 5 7 - - 0.0
30/08:30am 9.6 6.5 7.4 86 1.0 NNW 13 15 7 8 - - 0.0
30/08:00am 8.2 5.0 6.8 91 0.6 NNW 13 17 7 9 - - 0.0
30/07:30am 6.6 2.8 5.7 94 0.4 NNW 15 17 8 9 - - 0.0
30/07:00am 6.9 3.2 6.2 95 0.3 NW 15 20 8 11 - - 0.0
30/06:30am 6.5 2.3 5.8 95 0.3 NNW 17 20 9 11 - - 0.0
30/06:00am 6.3 2.5 5.7 96 0.3 N 15 17 8 9 - - 0.0
30/05:30am 5.9 2.0 5.3 96 0.3 NNW 15 19 8 10 - - 0.0
30/05:00am 6.2 2.4 5.6 96 0.3 NNW 15 17 8 9 - - 0.0
30/04:30am 5.5 2.3 4.9 96 0.3 NNE 11 15 6 8 - - 0.0
30/04:00am 5.9 1.2 5.3 96 0.3 N 19 20 10 11 - - 0.0
30/03:30am 6.1 3.4 5.5 96 0.3 N 9 13 5 7 - - 0.0
30/03:00am 6.4 3.7 5.8 96 0.3 N 9 13 5 7 - - 0.0
30/02:30am 7.3 4.1 6.7 96 0.3 NNE 13 15 7 8 - - 0.0
30/02:00am 7.2 4.3 6.5 95 0.3 NNE 11 13 6 7 - - 0.0
30/01:30am 8.0 5.6 7.1 94 0.4 N 9 11 5 6 - - 0.0
30/01:00am 8.2 5.9 7.3 94 0.4 N 9 11 5 6 - - 0.0
30/12:30am 9.1 7.0 8.2 94 0.4 N 9 11 5 6 - - 0.0
30/12:00am 9.1 8.6 7.9 92 0.6 CALM 0 4 0 2 - - 0.0
 
Date/Time
EST
Temp
°C
App
Temp
°C
Dew
Point
°C
Rel
Hum
%
Delta-T
°C
Wind Press
QNH
hPa
Press
MSL
hPa
Rain since
9am
mm
Dir  Spd
km/h
Gust
km/h
Spd
kts
Gust
kts
29/11:30pm 10.2 8.6 8.8 91 0.7 N 7 9 4 5 - - 0.0
29/11:00pm 11.0 10.9 9.4 90 0.8 CALM 0 6 0 3 - - 0.0
29/10:30pm 11.2 9.8 9.6 90 0.8 NE 7 11 4 6 - - 0.0
29/10:00pm 11.5 10.4 9.8 89 0.9 WSW 6 7 3 4 - - 0.0
29/09:30pm 11.9 11.8 9.6 86 1.2 CALM 0 6 0 3 - - 0.0
29/09:00pm 12.4 11.3 9.8 84 1.3 ESE 6 7 3 4 - - 0.0
29/08:30pm 12.5 12.6 10.0 85 1.3 CALM 0 0 0 0 - - 0.0
29/08:00pm 12.6 12.6 9.8 83 1.4 CALM 0 0 0 0 - - 0.0
29/07:30pm 12.7 11.4 9.9 83 1.4 SE 7 9 4 5 - - 0.0
29/07:00pm 12.8 12.0 9.8 82 1.5 SE 4 7 2 4 - - 0.0
29/06:30pm 13.0 11.3 10.0 82 1.5 SE 9 13 5 7 - - 0.0
29/06:00pm 12.9 11.2 9.9 82 1.5 ESE 9 15 5 8 - - 0.0
29/05:30pm 12.8 10.8 10.0 83 1.4 ESE 11 17 6 9 - - 0.0
29/05:00pm 13.1 11.0 9.9 81 1.6 ESE 11 15 6 8 - - 0.0
29/04:30pm 13.8 11.4 10.0 78 2.0 SE 13 19 7 10 - - 0.0
29/04:00pm 14.4 11.3 10.2 76 2.2 ESE 17 24 9 13 - - 0.0
29/03:30pm 15.5 12.3 10.1 70 2.8 ESE 17 24 9 13 - - 0.0
29/03:00pm 16.3 12.7 9.7 65 3.5 E 19 22 10 12 - - 0.0
29/02:30pm 18.8 16.0 8.5 51 5.3 W 13 19 7 10 - - 0.0
29/02:00pm 18.7 15.3 7.8 49 5.6 W 15 20 8 11 - - 0.0
29/01:30pm 18.1 14.5 6.9 48 5.6 W 15 24 8 13 - - 0.0
29/01:00pm 17.7 13.6 7.7 52 5.1 W 19 26 10 14 - - 0.0
29/12:30pm 17.8 13.7 7.8 52 5.1 W 19 26 10 14 - - 0.0
29/12:00pm 17.2 15.0 7.8 54 4.8 WSW 9 17 5 9 - - 0.0
29/11:30am 17.1 13.3 7.7 54 4.7 W 17 28 9 15 - - 0.0
29/11:00am 17.1 12.5 8.3 56 4.5 WSW 22 30 12 16 - - 0.0
29/10:30am 15.7 12.2 7.2 57 4.2 W 15 24 8 13 - - 0.0
29/10:00am 15.6 11.4 7.6 59 4.0 W 19 24 10 13 - - 0.0
29/09:30am 16.0 12.9 7.2 56 4.4 WNW 13 22 7 12 - - 0.0
29/09:00am 14.7 11.8 8.0 64 3.4 WNW 13 20 7 11 - - 0.0
29/08:30am 14.3 11.7 7.8 65 3.2 W 11 19 6 10 - - 0.0
29/08:00am 14.2 10.4 7.7 65 3.2 W 17 26 9 14 - - 0.0
29/07:30am 14.4 10.3 7.7 64 3.3 W 19 20 10 11 - - 0.0
29/07:00am 14.4 12.0 7.2 62 3.5 NW 9 15 5 8 - - 0.0
29/06:30am 14.7 9.1 7.3 61 3.6 WSW 26 35 14 19 - - 0.0
29/06:00am 14.6 13.1 6.9 60 3.8 W 4 20 2 11 - - 0.0
29/05:30am 14.4 12.0 7.0 61 3.6 W 9 19 5 10 - - 0.0
29/05:00am 14.5 12.1 6.8 60 3.8 W 9 15 5 8 - - 0.0
29/04:30am 14.6 12.2 6.9 60 3.8 W 9 15 5 8 - - 0.0
29/04:00am 14.5 11.6 6.6 59 3.8 WNW 11 19 6 10 - - 0.0
29/03:30am 15.0 12.1 6.6 57 4.1 NW 11 19 6 10 - - 0.0
29/03:00am 15.4 11.4 8.2 62 3.6 WSW 19 33 10 18 - - 0.0
29/02:30am 15.7 12.4 8.2 61 3.8 W 15 30 8 16 - - 0.0
29/02:00am 15.7 13.7 8.7 63 3.6 NNE 9 11 5 6 - - 0.0
29/01:30am 16.1 13.8 9.1 63 3.6 WNW 11 24 6 13 - - 0.0
29/01:00am 15.2 13.9 9.8 70 2.8 NW 7 13 4 7 - - 0.0
29/12:30am 15.5 12.6 9.8 69 3.0 NNW 15 20 8 11 - - 0.0
29/12:00am 15.2 13.8 9.6 69 2.9 NNW 7 9 4 5 - - 0.0
 
Date/Time
EST
Temp
°C
App
Temp
°C
Dew
Point
°C
Rel
Hum
%
Delta-T
°C
Wind Press
QNH
hPa
Press
MSL
hPa
Rain since
9am
mm
Dir  Spd
km/h
Gust
km/h
Spd
kts
Gust
kts
28/11:30pm 15.9 13.4 9.6 66 3.3 NW 13 28 7 15 - - 0.0
28/11:00pm 15.1 13.4 9.7 70 2.8 N 9 13 5 7 - - 0.0
28/10:30pm 15.0 12.0 9.4 69 2.9 N 15 19 8 10 - - 0.0
28/10:00pm 15.1 12.1 9.2 68 3.0 N 15 19 8 10 - - 0.0
28/09:30pm 15.0 12.7 9.1 68 3.0 N 11 13 6 7 - - 0.0
28/09:00pm 15.4 12.7 9.1 66 3.2 NNW 13 19 7 10 - - 0.0
28/08:30pm 14.9 12.2 8.8 67 3.1 NNW 13 20 7 11 - - 0.0
28/08:00pm 15.5 12.8 9.0 65 3.3 NW 13 22 7 12 - - 0.0
28/07:30pm 15.8 11.8 9.0 64 3.5 NW 20 32 11 17 - - 0.0
28/07:00pm 15.7 12.2 8.7 63 3.6 NW 17 26 9 14 - - 0.0
28/06:30pm 15.7 11.7 8.4 62 3.7 NW 19 30 10 16 - - 0.0
28/06:00pm 15.5 11.8 7.8 60 3.9 NNW 17 24 9 13 - - 0.0
28/05:30pm 15.6 11.4 7.4 58 4.1 NW 19 32 10 17 - - 0.0
28/05:00pm 15.9 12.0 6.9 55 4.4 NW 17 28 9 15 - - 0.0
28/04:30pm 16.9 12.2 6.1 49 5.3 WNW 20 35 11 19 - - 0.0
28/04:00pm 17.7 13.4 6.9 49 5.4 WNW 19 32 10 17 - - 0.0
28/03:30pm 18.2 13.6 6.7 47 5.7 WNW 20 39 11 21 - - 0.0
28/03:00pm 18.8 14.6 7.3 47 5.8 NW 19 33 10 18 - - 0.0
28/02:30pm 18.5 12.9 7.3 48 5.7 NW 26 41 14 22 - - 0.0
28/02:00pm 18.7 14.2 8.4 51 5.3 NW 22 33 12 18 - - 0.0
28/01:30pm 18.6 14.8 9.9 57 4.6 NW 20 32 11 17 - - 0.0
28/01:00pm 17.4 13.4 9.1 58 4.3 WNW 20 33 11 18 - - 0.0
28/12:30pm 17.8 13.9 8.6 55 4.8 WNW 19 32 10 17 - - 0.0
28/12:00pm 18.1 15.4 8.9 55 4.8 NW 13 20 7 11 - - 0.0
28/11:30am 16.5 12.3 8.2 58 4.2 NW 20 30 11 16 - - 0.0
28/11:00am 16.2 11.9 7.9 58 4.2 NW 20 30 11 16 - - 0.0
28/10:30am 16.0 12.7 8.2 60 4.0 NW 15 26 8 14 - - 0.0
28/10:00am 15.8 12.9 8.3 61 3.8 NNW 13 22 7 12 - - 0.0
28/09:30am 15.5 13.0 8.3 62 3.6 N 11 19 6 10 - - 0.0
28/09:00am 15.5 13.5 8.7 64 3.5 NNE 9 11 5 6 - - 0.0
28/08:30am 14.8 12.2 7.8 63 3.5 N 11 17 6 9 - - 0.0
28/08:00am 14.9 11.6 7.9 63 3.5 N 15 20 8 11 - - 0.0
28/07:30am 11.2 9.0 7.9 80 1.6 N 9 11 5 6 - - 0.0
28/07:00am 11.6 8.2 7.5 76 2.0 N 15 19 8 10 - - 0.0
28/06:30am 13.4 10.4 7.8 69 2.8 WNW 13 20 7 11 - - 0.0
28/06:00am 14.1 10.1 8.3 68 2.9 WNW 19 30 10 16 - - 0.0
28/05:30am 14.1 9.6 8.5 69 2.8 WNW 22 32 12 17 - - 0.0
28/05:00am 13.5 11.0 8.1 70 2.7 N 11 17 6 9 - - 0.0
28/04:30am 12.2 9.1 7.3 72 2.4 N 13 17 7 9 - - 0.0
28/04:00am 13.6 10.3 8.0 69 2.8 N 15 24 8 13 - - 0.0
28/03:30am 13.5 10.5 7.9 69 2.8 N 13 24 7 13 - - 0.0
28/03:00am 13.0 10.0 7.7 70 2.6 NNE 13 17 7 9 - - 0.0
28/02:30am 13.1 10.1 7.5 69 2.7 NNE 13 19 7 10 - - 0.0
28/02:00am 13.5 9.8 7.9 69 2.8 NNE 17 22 9 12 - - 0.0
28/01:30am 14.0 10.8 8.4 69 2.8 N 15 22 8 12 - - 0.0
28/01:00am 12.7 8.6 8.0 73 2.3 NNE 19 26 10 14 - - 0.0
28/12:30am 12.9 9.5 7.8 71 2.5 N 15 26 8 14 - - 0.0
28/12:00am 13.0 8.8 7.5 69 2.7 N 19 26 10 14 - - 0.0
 
Date/Time
EST
Temp
°C
App
Temp
°C
Dew
Point
°C
Rel
Hum
%
Delta-T
°C
Wind Press
QNH
hPa
Press
MSL
hPa
Rain since
9am
mm
Dir  Spd
km/h
Gust
km/h
Spd
kts
Gust
kts
27/11:30pm 12.5 9.0 7.2 70 2.6 N 15 22 8 12 - - 0.0
27/11:00pm 12.2 7.8 7.3 72 2.4 N 20 26 11 14 - - 0.0

Other Formats:

Comma delimited format used in spreadsheet applications
http://www.bom.gov.au/fwo/IDT60801/IDT60801.95972.axf

JavaScript Object Notation format (JSON) in row-major order
http://www.bom.gov.au/fwo/IDT60801/IDT60801.95972.json